createdAt,value
2022-09-20T00:01:33.267Z,86.41
2022-09-20T00:04:05.500Z,86.17
2022-09-20T00:06:34.845Z,86.78
2022-09-20T00:09:03.693Z,86.50
2022-09-20T00:11:33.653Z,85.98
2022-09-20T00:14:06.082Z,86.24
2022-09-20T00:16:39.100Z,87.05
2022-09-20T00:19:08.278Z,87.12
2022-09-20T00:21:38.008Z,85.56
2022-09-20T00:24:06.418Z,86.56
2022-09-20T00:26:35.264Z,86.90
2022-09-20T00:29:05.421Z,86.70
2022-09-20T00:31:33.839Z,86.10
2022-09-20T00:34:19.309Z,86.60
2022-09-20T00:36:47.372Z,86.62
2022-09-20T00:39:16.960Z,86.01
2022-09-20T00:41:45.454Z,86.64
2022-09-20T00:44:44.040Z,86.30
2022-09-20T00:47:18.493Z,86.44
2022-09-20T00:49:47.009Z,86.38
2022-09-20T00:52:15.948Z,86.67
2022-09-20T00:54:44.072Z,85.35
2022-09-20T00:57:12.364Z,85.71
2022-09-20T00:59:46.165Z,86.31
2022-09-20T01:02:18.265Z,85.49
2022-09-20T01:04:48.656Z,85.89
2022-09-20T01:07:22.317Z,84.93
2022-09-20T01:09:50.551Z,85.24
2022-09-20T01:12:21.635Z,85.26
2022-09-20T01:14:52.553Z,85.35
2022-09-20T01:17:25.373Z,85.22
2022-09-20T01:20:09.329Z,86.09
2022-09-20T01:22:46.431Z,85.65
2022-09-20T01:25:18.039Z,85.60
2022-09-20T01:27:49.777Z,85.72
2022-09-20T01:30:21.258Z,85.40
2022-09-20T01:33:03.170Z,86.39
2022-09-20T01:35:35.378Z,86.77
2022-09-20T01:38:15.824Z,86.40
2022-09-20T01:40:55.304Z,87.27
2022-09-20T01:43:31.903Z,85.68
2022-09-20T01:46:16.551Z,86.28
2022-09-20T01:48:44.719Z,86.46
2022-09-20T01:51:42.805Z,86.37
2022-09-20T01:54:49.015Z,85.93
2022-09-20T01:58:06.907Z,85.97
2022-09-20T02:00:49.667Z,85.93
2022-09-20T02:03:53.618Z,86.14
2022-09-20T02:06:49.968Z,86.45
2022-09-20T02:09:58.254Z,86.71
2022-09-20T02:12:52.756Z,86.40
2022-09-20T02:15:41.377Z,86.95
2022-09-20T02:18:25.913Z,87.24
2022-09-20T02:21:00.182Z,87.27
2022-09-20T02:23:42.520Z,87.16
2022-09-20T02:26:28.971Z,87.18
2022-09-20T02:29:03.613Z,87.69
2022-09-20T02:31:54.534Z,87.17
2022-09-20T02:34:47.524Z,87.65
2022-09-20T02:37:29.990Z,87.79
2022-09-20T02:40:17.777Z,87.51
2022-09-20T02:42:48.798Z,87.84
2022-09-20T02:45:23.963Z,87.94
2022-09-20T02:48:04.228Z,87.78
2022-09-20T02:50:41.048Z,87.93
2022-09-20T02:53:26.264Z,87.84
2022-09-20T02:56:03.446Z,87.83
2022-09-20T02:58:43.006Z,87.57
2022-09-20T03:01:21.519Z,87.86
2022-09-20T03:04:00.963Z,87.77
2022-09-20T03:06:39.179Z,88.09
2022-09-20T03:09:19.228Z,87.73
2022-09-20T03:11:59.453Z,88.10
2022-09-20T03:14:32.565Z,88.03
2022-09-20T03:17:07.982Z,87.92
2022-09-20T03:19:52.838Z,88.40
2022-09-20T03:22:32.831Z,88.21
2022-09-20T03:25:27.772Z,88.22
2022-09-20T03:28:04.149Z,88.35
2022-09-20T03:30:47.553Z,88.48
2022-09-20T03:33:24.580Z,88.14
2022-09-20T03:36:05.759Z,88.10
2022-09-20T03:38:49.555Z,88.05
2022-09-20T03:41:30.363Z,88.49
2022-09-20T03:44:17.399Z,88.80
2022-09-20T03:46:48.762Z,87.99
2022-09-20T03:49:51.263Z,88.39
2022-09-20T03:52:48.902Z,88.15
2022-09-20T03:55:45.251Z,88.62
2022-09-20T03:58:35.627Z,88.46
2022-09-20T04:01:21.352Z,89.20
2022-09-20T04:03:55.127Z,89.02
2022-09-20T04:06:46.267Z,89.55
2022-09-20T04:09:49.792Z,89.72
2022-09-20T04:12:28.938Z,89.34
2022-09-20T04:15:10.083Z,89.44
2022-09-20T04:17:46.835Z,89.15
2022-09-20T04:20:21.432Z,89.24
2022-09-20T04:22:52.476Z,89.23
2022-09-20T04:25:28.437Z,89.51
2022-09-20T04:27:58.231Z,89.41
2022-09-20T04:30:30.327Z,89.44
2022-09-20T04:33:04.242Z,89.36
2022-09-20T04:35:57.553Z,89.26
2022-09-20T04:38:28.292Z,89.42
2022-09-20T04:41:18.144Z,89.71
2022-09-20T04:44:22.404Z,89.22
2022-09-20T04:47:44.659Z,89.33
2022-09-20T04:50:47.616Z,89.13
2022-09-20T04:53:53.535Z,88.96
2022-09-20T04:56:38.467Z,88.94
2022-09-20T04:59:12.162Z,88.67
2022-09-20T05:02:19.183Z,88.86
2022-09-20T05:05:38.137Z,88.66
2022-09-20T05:08:40.743Z,88.96
2022-09-20T05:11:54.227Z,89.34
2022-09-20T05:14:55.478Z,89.23
2022-09-20T05:17:35.738Z,89.25
2022-09-20T05:20:28.265Z,89.23
2022-09-20T05:23:29.509Z,88.48
2022-09-20T05:26:07.262Z,88.10
2022-09-20T05:28:40.147Z,88.51
2022-09-20T05:31:15.696Z,88.11
2022-09-20T05:33:52.025Z,87.53
2022-09-20T05:36:33.774Z,88.01
2022-09-20T05:39:16.492Z,88.39
2022-09-20T05:41:52.056Z,87.97
2022-09-20T05:44:28.693Z,87.31
2022-09-20T05:47:07.176Z,87.26
2022-09-20T05:49:48.440Z,87.07
2022-09-20T05:52:32.813Z,86.63
2022-09-20T05:55:25.173Z,85.98
2022-09-20T05:58:17.159Z,85.32
2022-09-20T06:00:51.046Z,85.44
2022-09-20T06:03:30.515Z,85.05
2022-09-20T06:06:06.006Z,84.79
2022-09-20T06:09:01.499Z,84.86
2022-09-20T06:11:58.422Z,83.95
2022-09-20T06:14:40.328Z,83.14
2022-09-20T06:17:24.885Z,83.86
2022-09-20T06:20:07.788Z,83.55
2022-09-20T06:22:39.781Z,83.83
2022-09-20T06:25:17.095Z,83.32
2022-09-20T06:27:48.401Z,82.08
2022-09-20T06:30:19.751Z,81.84
2022-09-20T06:32:58.399Z,82.86
2022-09-20T06:35:34.778Z,83.12
2022-09-20T06:38:33.945Z,82.20
2022-09-20T06:41:19.476Z,81.91
2022-09-20T06:43:48.687Z,81.99
2022-09-20T06:46:17.830Z,81.26
2022-09-20T06:48:45.974Z,81.48
2022-09-20T06:51:15.529Z,81.43
2022-09-20T06:53:43.813Z,81.71
2022-09-20T06:56:19.780Z,81.82
2022-09-20T06:58:47.584Z,81.30
2022-09-20T07:01:22.982Z,80.85
2022-09-20T07:03:57.598Z,82.20
2022-09-20T07:06:28.909Z,80.45
2022-09-20T07:08:57.026Z,78.86
2022-09-20T07:11:25.565Z,79.08
2022-09-20T07:13:55.117Z,79.19
2022-09-20T07:16:23.690Z,78.11
2022-09-20T07:18:52.579Z,79.43
2022-09-20T07:21:22.360Z,79.51
2022-09-20T07:23:54.135Z,78.41
2022-09-20T07:26:24.400Z,78.98
2022-09-20T07:28:52.544Z,77.10
2022-09-20T07:31:23.904Z,78.32
2022-09-20T07:33:55.512Z,79.53
2022-09-20T07:36:24.621Z,79.14
2022-09-20T07:38:57.903Z,77.83
2022-09-20T07:41:32.577Z,77.09
2022-09-20T07:44:18.287Z,77.52
2022-09-20T07:46:49.120Z,77.00
2022-09-20T07:49:41.724Z,77.02
2022-09-20T07:52:11.363Z,76.00
2022-09-20T07:54:42.928Z,75.77
2022-09-20T07:57:10.999Z,75.65
2022-09-20T07:59:39.170Z,75.57
2022-09-20T08:02:07.714Z,76.35
2022-09-20T08:04:35.905Z,75.58
2022-09-20T08:07:04.019Z,76.53
2022-09-20T08:09:32.155Z,74.69
2022-09-20T08:14:05.391Z,74.29
2022-09-20T08:14:50.667Z,74.34
2022-09-20T08:17:20.940Z,75.33
2022-09-20T08:19:49.161Z,74.38
2022-09-20T08:22:17.203Z,75.75
2022-09-20T08:24:45.445Z,74.87
2022-09-20T08:27:14.902Z,74.65
2022-09-20T08:29:43.143Z,73.76
2022-09-20T08:32:11.449Z,73.30
2022-09-20T08:34:41.809Z,73.22
2022-09-20T08:37:09.916Z,72.54
2022-09-20T08:42:34.374Z,72.97
2022-09-20T08:45:07.980Z,72.08
2022-09-20T08:47:39.878Z,72.31
2022-09-20T08:50:17.281Z,74.13
2022-09-20T08:52:47.902Z,72.58
2022-09-20T08:55:19.951Z,72.78
2022-09-20T08:57:53.070Z,71.55
2022-09-20T09:00:27.554Z,72.71
2022-09-20T09:02:59.801Z,72.46
2022-09-20T09:05:35.681Z,69.96
2022-09-20T09:08:06.804Z,71.33
2022-09-20T09:10:45.626Z,71.32
2022-09-20T09:13:23.769Z,71.48
2022-09-20T09:15:57.356Z,71.15
2022-09-20T09:18:34.080Z,70.35
2022-09-20T09:21:04.299Z,70.81
2022-09-20T09:23:41.510Z,70.47
2022-09-20T09:26:17.460Z,71.92
2022-09-20T09:28:46.850Z,71.98
2022-09-20T09:31:25.791Z,71.48
2022-09-20T09:33:54.051Z,69.72
2022-09-20T09:36:25.459Z,68.75
2022-09-20T09:39:17.900Z,70.91
2022-09-20T09:41:46.581Z,67.09
2022-09-20T09:44:26.988Z,68.73
2022-09-20T09:46:59.447Z,67.21
2022-09-20T09:49:36.397Z,66.56
2022-09-20T09:52:08.375Z,68.06
2022-09-20T09:54:40.962Z,64.17
2022-09-20T09:57:22.505Z,65.54
2022-09-20T10:00:10.656Z,65.33
2022-09-20T10:03:11.519Z,65.46
2022-09-20T10:05:45.266Z,64.05
2022-09-20T10:08:26.282Z,64.98
2022-09-20T10:11:07.192Z,66.43
2022-09-20T10:13:44.538Z,68.23
2022-09-20T10:16:33.710Z,67.25
2022-09-20T10:19:09.949Z,64.65
2022-09-20T10:21:49.334Z,65.00
2022-09-20T10:24:30.949Z,66.01
2022-09-20T10:27:19.397Z,66.67
2022-09-20T10:30:03.518Z,67.83
2022-09-20T10:32:50.051Z,68.51
2022-09-20T10:35:26.351Z,67.20
2022-09-20T10:38:20.242Z,67.64
2022-09-20T10:41:29.972Z,66.88
2022-09-20T10:44:28.540Z,66.49
2022-09-20T10:47:04.416Z,64.94
2022-09-20T10:49:37.560Z,65.00
2022-09-20T10:52:24.934Z,64.79
2022-09-20T10:55:13.574Z,63.16
2022-09-20T10:58:01.961Z,61.58
2022-09-20T11:00:45.302Z,60.12
2022-09-20T11:03:31.755Z,61.04
2022-09-20T11:06:14.548Z,60.71
2022-09-20T11:08:45.037Z,60.45
2022-09-20T11:11:19.853Z,61.79
2022-09-20T11:13:58.093Z,63.57
2022-09-20T11:16:29.550Z,65.94
2022-09-20T11:19:02.448Z,65.53
2022-09-20T11:21:38.500Z,62.84
2022-09-20T11:24:16.821Z,63.88
2022-09-20T11:26:49.297Z,63.67
2022-09-20T11:29:25.536Z,64.13
2022-09-20T11:31:57.145Z,66.41
2022-09-20T11:34:37.757Z,64.34
2022-09-20T11:37:09.838Z,64.63
2022-09-20T11:39:46.384Z,63.34
2022-09-20T11:42:19.223Z,63.66
2022-09-20T11:44:48.208Z,62.90
2022-09-20T11:47:42.825Z,63.10
2022-09-20T11:50:52.868Z,63.61
2022-09-20T11:53:36.982Z,65.09
2022-09-20T11:56:13.997Z,65.66
2022-09-20T11:58:48.902Z,62.68
2022-09-20T12:01:28.281Z,61.74
2022-09-20T12:04:30.603Z,63.30
2022-09-20T12:07:03.511Z,61.92
2022-09-20T12:09:41.150Z,62.50
2022-09-20T12:12:20.720Z,62.45
2022-09-20T12:14:55.791Z,62.39
2022-09-20T12:18:05.491Z,62.41
2022-09-20T12:20:59.864Z,64.73
2022-09-20T12:24:02.791Z,63.44
2022-09-20T12:26:42.757Z,63.30
2022-09-20T12:29:55.425Z,64.37
2022-09-20T12:32:52.114Z,66.60
2022-09-20T12:35:39.145Z,68.26
2022-09-20T12:38:19.687Z,71.18
2022-09-20T12:41:00.463Z,71.35
2022-09-20T12:43:34.906Z,71.60
2022-09-20T12:46:07.504Z,72.34
2022-09-20T12:48:38.970Z,72.49
2022-09-20T12:51:37.962Z,71.53
2022-09-20T12:54:08.838Z,71.60
2022-09-20T12:56:38.964Z,70.04
2022-09-20T12:59:25.596Z,71.36
2022-09-20T13:01:53.993Z,71.56
2022-09-20T13:04:56.452Z,71.21
2022-09-20T13:07:52.979Z,70.73
2022-09-20T13:10:29.361Z,70.60
2022-09-20T13:13:04.458Z,68.68
2022-09-20T13:15:34.970Z,67.09
2022-09-20T13:18:03.972Z,67.52
2022-09-20T13:20:34.976Z,69.03
2022-09-20T13:23:08.235Z,68.04
2022-09-20T13:25:40.226Z,68.43
2022-09-20T13:28:21.103Z,68.62
2022-09-20T13:30:51.031Z,67.63
2022-09-20T13:33:24.199Z,69.11
2022-09-20T13:35:57.247Z,68.80
2022-09-20T13:38:30.042Z,68.03
2022-09-20T13:41:06.261Z,66.41
2022-09-20T13:43:43.108Z,66.48
2022-09-20T13:46:16.592Z,64.68
2022-09-20T13:48:47.673Z,63.95
2022-09-20T13:51:20.260Z,63.16
2022-09-20T13:53:48.910Z,62.28
2022-09-20T13:56:22.212Z,63.76
2022-09-20T13:58:51.507Z,63.53
2022-09-20T14:01:29.673Z,64.24
2022-09-20T14:04:04.813Z,65.69
2022-09-20T14:06:33.588Z,66.45
2022-09-20T14:09:11.037Z,64.68
2022-09-20T14:11:41.052Z,63.09
2022-09-20T14:14:13.458Z,64.11
2022-09-20T14:16:46.927Z,63.13
2022-09-20T14:19:17.995Z,64.22
2022-09-20T14:21:46.598Z,63.24
2022-09-20T14:24:32.590Z,63.73
2022-09-20T14:27:17.746Z,64.61
2022-09-20T14:29:49.198Z,65.60
2022-09-20T14:32:37.312Z,66.28
2022-09-20T14:35:15.276Z,66.92
2022-09-20T14:37:46.646Z,67.48
2022-09-20T14:40:23.040Z,68.22
2022-09-20T14:42:58.265Z,67.36
2022-09-20T14:45:30.507Z,66.85
2022-09-20T14:48:10.828Z,68.04
2022-09-20T14:50:43.440Z,67.32
2022-09-20T14:53:27.578Z,69.05
2022-09-20T14:56:01.702Z,68.68
2022-09-20T14:58:31.086Z,66.35
2022-09-20T15:01:05.196Z,64.77
2022-09-20T15:03:39.149Z,63.60
2022-09-20T15:06:12.018Z,64.25
2022-09-20T15:08:46.142Z,65.80
2022-09-20T15:11:16.141Z,65.19
2022-09-20T15:13:44.473Z,66.52
2022-09-20T15:16:13.939Z,68.68
2022-09-20T15:18:44.809Z,69.04
2022-09-20T15:21:13.306Z,69.86
2022-09-20T15:23:42.100Z,70.26
2022-09-20T15:26:13.385Z,71.46
2022-09-20T15:28:42.228Z,73.23
2022-09-20T15:31:11.578Z,73.97
2022-09-20T15:33:39.984Z,73.78
2022-09-20T15:36:11.626Z,74.41
2022-09-20T15:38:41.739Z,74.29
2022-09-20T15:41:10.995Z,74.80
2022-09-20T15:43:43.396Z,75.44
2022-09-20T15:46:19.754Z,75.15
2022-09-20T15:48:48.701Z,75.54
2022-09-20T15:51:18.595Z,76.57
2022-09-20T15:53:49.544Z,77.00
2022-09-20T15:56:21.300Z,77.11
2022-09-20T15:58:53.762Z,77.22
2022-09-20T16:01:23.367Z,77.54
2022-09-20T16:03:51.669Z,77.06
2022-09-20T16:06:21.714Z,76.38
2022-09-20T16:08:50.008Z,76.88
2022-09-20T16:11:22.858Z,77.31
2022-09-20T16:13:54.276Z,77.08
2022-09-20T16:16:26.889Z,77.70
2022-09-20T16:19:13.398Z,77.81
2022-09-20T16:21:47.035Z,78.64
2022-09-20T16:24:18.671Z,78.46
2022-09-20T16:26:49.163Z,79.12
2022-09-20T16:29:18.721Z,79.72
2022-09-20T16:31:50.899Z,80.43
2022-09-20T16:34:29.811Z,81.65
2022-09-20T16:37:00.737Z,81.33
2022-09-20T16:39:30.501Z,82.20
2022-09-20T16:42:06.954Z,81.69
2022-09-20T16:44:37.136Z,81.84
2022-09-20T16:47:08.142Z,82.35
2022-09-20T16:49:36.971Z,81.70
2022-09-20T16:52:07.237Z,81.39
2022-09-20T16:54:37.868Z,82.01
2022-09-20T16:57:06.196Z,81.11
2022-09-20T16:59:34.462Z,80.90
2022-09-20T17:02:03.011Z,80.96
2022-09-20T17:04:31.606Z,81.10
2022-09-20T17:07:01.938Z,81.58
2022-09-20T17:09:31.692Z,82.13
2022-09-20T17:12:00.321Z,82.26
2022-09-20T17:14:28.672Z,82.29
2022-09-20T17:16:57.827Z,82.76
2022-09-20T17:19:26.790Z,82.60
2022-09-20T17:21:55.185Z,82.62
2022-09-20T17:24:25.256Z,82.39
2022-09-20T17:26:55.066Z,82.55
2022-09-20T17:29:24.326Z,83.10
2022-09-20T17:31:56.518Z,83.29
2022-09-20T17:34:26.595Z,83.50
2022-09-20T17:36:55.574Z,82.96
2022-09-20T17:39:24.472Z,82.68
2022-09-20T17:41:54.869Z,82.85
2022-09-20T17:44:25.241Z,82.37
2022-09-20T17:46:54.289Z,82.85
2022-09-20T17:49:24.309Z,82.62
2022-09-20T17:51:56.736Z,82.57
2022-09-20T17:54:25.397Z,82.64
2022-09-20T17:56:56.208Z,82.35
2022-09-20T17:59:25.492Z,82.05
2022-09-20T18:01:54.451Z,82.32
2022-09-20T18:04:24.670Z,81.94
2022-09-20T18:06:55.117Z,81.91
2022-09-20T18:09:27.269Z,82.02
2022-09-20T18:11:57.814Z,81.57
2022-09-20T18:14:28.024Z,81.41
2022-09-20T18:17:01.354Z,80.99
2022-09-20T18:19:33.111Z,80.90
2022-09-20T18:22:02.261Z,81.36
2022-09-20T18:24:31.110Z,81.64
2022-09-20T18:27:00.985Z,81.68
2022-09-20T18:29:31.844Z,81.36
2022-09-20T18:32:01.046Z,81.90
2022-09-20T18:34:31.133Z,82.03
2022-09-20T18:37:01.429Z,82.18
2022-09-20T18:39:32.580Z,82.03
2022-09-20T18:42:02.695Z,82.78
2022-09-20T18:44:34.326Z,82.76
2022-09-20T18:47:03.536Z,83.18
2022-09-20T18:49:36.004Z,83.49
2022-09-20T18:52:14.184Z,83.45
2022-09-20T18:54:42.893Z,84.27
2022-09-20T18:57:13.145Z,84.17
2022-09-20T18:59:53.409Z,84.14
2022-09-20T19:02:40.005Z,84.30
2022-09-20T19:05:23.193Z,84.36
2022-09-20T19:08:03.817Z,84.06
2022-09-20T19:10:42.432Z,84.27
2022-09-20T19:13:24.483Z,83.58
2022-09-20T19:16:13.069Z,84.17
2022-09-20T19:19:09.509Z,83.83
2022-09-20T19:21:46.872Z,83.39
2022-09-20T19:24:29.141Z,83.44
2022-09-20T19:26:57.732Z,83.30
2022-09-20T19:29:32.007Z,83.16
2022-09-20T19:32:01.208Z,83.59
2022-09-20T19:34:32.288Z,83.55
2022-09-20T19:37:18.926Z,83.66
2022-09-20T19:40:12.204Z,84.07
2022-09-20T19:42:53.121Z,84.03
2022-09-20T19:45:33.022Z,84.06
2022-09-20T19:48:07.799Z,84.10
2022-09-20T19:50:45.459Z,84.08
2022-09-20T19:53:14.915Z,84.53
2022-09-20T19:55:48.119Z,84.41
2022-09-20T19:58:17.176Z,84.41
2022-09-20T20:00:48.317Z,84.58
2022-09-20T20:03:18.021Z,84.62
2022-09-20T20:05:52.707Z,84.62
2022-09-20T20:08:25.363Z,84.23
2022-09-20T20:11:03.269Z,83.41
2022-09-20T20:14:02.865Z,82.82
2022-09-20T20:16:37.897Z,83.27
2022-09-20T20:19:27.864Z,83.39
2022-09-20T20:22:00.244Z,83.23
2022-09-20T20:24:34.161Z,83.52
2022-09-20T20:27:02.696Z,82.78
2022-09-20T20:29:31.326Z,83.39
2022-09-20T20:32:00.952Z,83.93
2022-09-20T20:34:30.364Z,85.11
2022-09-20T20:37:01.055Z,85.53
2022-09-20T20:39:31.726Z,85.62
2022-09-20T20:42:03.641Z,85.66
2022-09-20T20:44:35.180Z,85.74
2022-09-20T20:47:05.200Z,85.59
2022-09-20T20:49:33.955Z,85.53
2022-09-20T20:52:04.881Z,85.58
2022-09-20T20:54:33.896Z,86.11
2022-09-20T20:57:03.481Z,85.52
2022-09-20T20:59:31.652Z,85.29
2022-09-20T21:02:03.398Z,85.15
2022-09-20T21:04:37.038Z,85.52
2022-09-20T21:07:05.743Z,85.53
2022-09-20T21:09:34.113Z,85.58
2022-09-20T21:12:03.343Z,85.27
2022-09-20T21:14:34.839Z,84.81
2022-09-20T21:17:03.046Z,84.68
2022-09-20T21:19:31.365Z,84.66
2022-09-20T21:22:02.045Z,84.78
2022-09-20T21:24:30.261Z,84.82
2022-09-20T21:26:58.411Z,84.70
2022-09-20T21:29:30.779Z,84.79
2022-09-20T21:31:58.867Z,84.72
2022-09-20T21:34:27.008Z,84.85
2022-09-20T21:36:55.084Z,84.97
2022-09-20T21:39:24.689Z,85.23
2022-09-20T21:41:54.805Z,85.50
2022-09-20T21:44:22.973Z,85.56
2022-09-20T21:46:51.067Z,85.96
2022-09-20T21:49:19.317Z,86.10
2022-09-20T21:51:47.473Z,86.80
2022-09-20T21:54:15.661Z,86.91
2022-09-20T21:56:45.238Z,87.14
2022-09-20T21:59:13.605Z,86.98
2022-09-20T22:01:41.844Z,87.28
2022-09-20T22:04:11.606Z,87.01
2022-09-20T22:06:41.366Z,87.05
2022-09-20T22:09:11.556Z,87.02
2022-09-20T22:11:41.662Z,86.58
2022-09-20T22:14:13.063Z,86.43
2022-09-20T22:16:42.708Z,86.14
2022-09-20T22:19:13.327Z,85.82
2022-09-20T22:21:43.470Z,85.81
2022-09-20T22:24:13.678Z,86.10
2022-09-20T22:26:44.167Z,85.77
2022-09-20T22:29:14.063Z,85.62
2022-09-20T22:31:45.635Z,85.29
2022-09-20T22:34:16.056Z,85.27
2022-09-20T22:36:44.647Z,85.27
2022-09-20T22:39:13.535Z,85.71
2022-09-20T22:41:42.874Z,86.17
2022-09-20T22:44:11.823Z,86.92
2022-09-20T22:46:41.589Z,87.54
2022-09-20T22:49:10.931Z,87.03
2022-09-20T22:51:39.502Z,86.33
2022-09-20T22:54:09.597Z,86.21
2022-09-20T22:56:39.438Z,86.77
2022-09-20T22:59:09.376Z,86.36
2022-09-20T23:01:39.716Z,85.71
2022-09-20T23:04:11.287Z,85.52
2022-09-20T23:06:41.278Z,86.09
2022-09-20T23:09:11.683Z,86.38
2022-09-20T23:11:42.070Z,86.77
2022-09-20T23:14:12.958Z,87.30
2022-09-20T23:16:41.571Z,87.41
2022-09-20T23:19:12.256Z,87.60
2022-09-20T23:21:41.883Z,87.94
2022-09-20T23:24:12.062Z,88.99
2022-09-20T23:26:41.697Z,89.61
2022-09-20T23:29:11.480Z,90.13
2022-09-20T23:31:45.551Z,90.22
2022-09-20T23:34:16.507Z,90.44
2022-09-20T23:36:45.455Z,90.34
2022-09-20T23:39:14.228Z,89.89
2022-09-20T23:41:45.780Z,89.51
2022-09-20T23:44:16.621Z,88.39
2022-09-20T23:46:44.709Z,88.20
2022-09-20T23:49:12.934Z,88.17
2022-09-20T23:51:42.407Z,87.69
2022-09-20T23:54:10.543Z,87.68
2022-09-20T23:56:38.859Z,87.67
2022-09-20T23:59:06.871Z,87.67
